createdAt,value
2019-04-19T00:00:55.850Z,973.22
2019-04-19T00:01:57.549Z,973.24
2019-04-19T00:02:53.000Z,973.25
2019-04-19T00:03:51.126Z,973.25
2019-04-19T00:04:52.773Z,973.19
2019-04-19T00:05:51.158Z,973.22
2019-04-19T00:06:58.981Z,973.21
2019-04-19T00:07:55.462Z,973.23
2019-04-19T00:09:41.282Z,973.23
2019-04-19T00:10:55.463Z,973.27
2019-04-19T00:12:10.644Z,973.19
2019-04-19T00:13:06.126Z,973.21
2019-04-19T00:14:04.309Z,973.2
2019-04-19T00:15:03.787Z,973.19
2019-04-19T00:16:04.633Z,973.16
2019-04-19T00:17:05.967Z,973.17
2019-04-19T00:18:07.748Z,973.22
2019-04-19T00:19:23.745Z,973.19
2019-04-19T00:21:44.494Z,973.22
2019-04-19T00:23:31.863Z,973.18
2019-04-19T00:24:24.961Z,973.18
2019-04-19T00:25:25.815Z,973.21
2019-04-19T00:26:25.834Z,973.16
2019-04-19T00:27:31.350Z,973.18
2019-04-19T00:28:34.091Z,973.17
2019-04-19T00:29:34.498Z,973.17
2019-04-19T00:30:51.743Z,973.21
2019-04-19T00:32:20.254Z,973.18
2019-04-19T00:33:41.401Z,973.19
2019-04-19T00:34:35.691Z,973.16
2019-04-19T00:35:34.838Z,973.18
2019-04-19T00:36:34.825Z,973.19
2019-04-19T00:37:34.826Z,973.17
2019-04-19T00:38:42.371Z,973.18
2019-04-19T00:40:38.000Z,973.21
2019-04-19T00:42:35.274Z,973.22
2019-04-19T00:44:27.869Z,973.27
2019-04-19T00:46:28.996Z,973.26
2019-04-19T00:48:11.825Z,973.26
2019-04-19T00:49:49.437Z,973.21
2019-04-19T00:51:20.505Z,973.22
2019-04-19T00:53:07.267Z,973.24
2019-04-19T00:54:24.803Z,973.25
2019-04-19T00:55:37.717Z,973.23
2019-04-19T00:56:46.535Z,973.22
2019-04-19T00:57:43.708Z,973.21
2019-04-19T00:58:42.567Z,973.24
2019-04-19T00:59:42.357Z,973.26
2019-04-19T01:00:39.885Z,973.27
2019-04-19T01:01:37.585Z,973.24
2019-04-19T01:02:41.803Z,973.27
2019-04-19T01:03:42.407Z,973.27
2019-04-19T01:04:38.313Z,973.25
2019-04-19T01:05:46.958Z,973.26
2019-04-19T01:06:43.640Z,973.25
2019-04-19T01:07:39.411Z,973.27
2019-04-19T01:08:48.647Z,973.28
2019-04-19T01:10:22.508Z,973.28
2019-04-19T01:11:58.941Z,973.32
2019-04-19T01:13:40.993Z,973.34
2019-04-19T01:15:03.444Z,973.32
2019-04-19T01:16:29.390Z,973.33
2019-04-19T01:18:08.989Z,973.31
2019-04-19T01:19:13.007Z,973.33
2019-04-19T01:20:11.931Z,973.33
2019-04-19T01:21:09.417Z,973.32
2019-04-19T01:22:13.714Z,973.32
2019-04-19T01:23:13.150Z,973.34
2019-04-19T01:24:09.678Z,973.35
2019-04-19T01:25:16.089Z,973.34
2019-04-19T01:26:11.981Z,973.35
2019-04-19T01:27:13.097Z,973.4
2019-04-19T01:28:15.530Z,973.35
2019-04-19T01:29:12.370Z,973.36
2019-04-19T01:30:10.395Z,973.36
2019-04-19T01:31:16.298Z,973.37
2019-04-19T01:32:13.600Z,973.36
2019-04-19T01:33:10.551Z,973.34
2019-04-19T01:34:15.846Z,973.42
2019-04-19T01:35:13.657Z,973.45
2019-04-19T01:36:10.369Z,973.41
2019-04-19T01:37:15.690Z,973.47
2019-04-19T01:38:10.475Z,973.42
2019-04-19T01:39:21.487Z,973.42
2019-04-19T01:41:11.695Z,973.45
2019-04-19T01:42:52.860Z,973.45
2019-04-19T01:44:56.698Z,973.42
2019-04-19T01:46:48.338Z,973.48
2019-04-19T01:48:42.825Z,973.51
2019-04-19T01:50:15.005Z,973.51
2019-04-19T01:52:14.935Z,973.48
2019-04-19T01:54:29.383Z,973.46
2019-04-19T01:55:35.072Z,973.46
2019-04-19T01:56:30.498Z,973.45
2019-04-19T01:57:30.364Z,973.48
2019-04-19T01:58:31.339Z,973.5
2019-04-19T01:59:32.815Z,973.47
2019-04-19T02:00:37.651Z,973.47
2019-04-19T02:01:32.988Z,973.48
2019-04-19T02:02:31.082Z,973.45
2019-04-19T02:03:36.626Z,973.45
2019-04-19T02:04:32.913Z,973.4
2019-04-19T02:05:30.069Z,973.43
2019-04-19T02:06:34.960Z,973.45
2019-04-19T02:07:32.638Z,973.44
2019-04-19T02:08:33.053Z,973.47
2019-04-19T02:09:39.405Z,973.46
2019-04-19T02:11:07.037Z,973.49
2019-04-19T02:12:29.349Z,973.48
2019-04-19T02:13:46.437Z,973.5
2019-04-19T02:14:46.230Z,973.51
2019-04-19T02:15:43.565Z,973.52
2019-04-19T02:16:38.599Z,973.53
2019-04-19T02:17:41.840Z,973.5
2019-04-19T02:18:38.955Z,973.53
2019-04-19T02:19:38.810Z,973.57
2019-04-19T02:20:41.232Z,973.59
2019-04-19T02:21:41.162Z,973.6
2019-04-19T02:22:39.834Z,973.59
2019-04-19T02:23:44.344Z,973.65
2019-04-19T02:24:43.987Z,973.63
2019-04-19T02:25:37.788Z,973.63
2019-04-19T02:26:44.882Z,973.69
2019-04-19T02:27:42.199Z,973.69
2019-04-19T02:28:39.712Z,973.68
2019-04-19T02:29:38.364Z,973.75
2019-04-19T02:30:53.363Z,973.77
2019-04-19T02:33:37.425Z,973.78
2019-04-19T02:36:43.915Z,973.81
2019-04-19T02:43:23.631Z,973.89
2019-04-19T02:46:49.702Z,973.88
2019-04-19T02:55:42.871Z,974.01
2019-04-19T02:59:20.533Z,974.02
2019-04-19T03:02:52.395Z,974.04
2019-04-19T03:05:55.645Z,974.05
2019-04-19T03:06:58.901Z,974.08
2019-04-19T03:07:55.414Z,974.07
2019-04-19T03:08:54.441Z,974.09
2019-04-19T03:09:55.442Z,974.12
2019-04-19T03:11:05.940Z,974.12
2019-04-19T03:13:07.854Z,974.14
2019-04-19T03:15:05.206Z,974.19
2019-04-19T03:17:34.505Z,974.2
2019-04-19T03:19:24.597Z,974.17
2019-04-19T03:21:11.317Z,974.15
2019-04-19T03:22:53.065Z,974.23
2019-04-19T03:24:46.446Z,974.24
2019-04-19T03:26:36.061Z,974.24
2019-04-19T03:27:59.168Z,974.24
2019-04-19T03:28:59.006Z,974.25
2019-04-19T03:30:10.418Z,974.29
2019-04-19T03:33:16.895Z,974.25
2019-04-19T03:36:05.118Z,974.27
2019-04-19T03:38:09.952Z,974.25
2019-04-19T03:40:34.369Z,974.28
2019-04-19T03:43:06.236Z,974.32
2019-04-19T03:45:06.706Z,974.31
2019-04-19T03:47:20.781Z,974.34
2019-04-19T03:49:56.936Z,974.4
2019-04-19T03:51:56.599Z,974.4
2019-04-19T03:54:05.522Z,974.44
2019-04-19T03:56:26.170Z,974.44
2019-04-19T03:58:00.404Z,974.47
2019-04-19T03:58:53.950Z,974.48
2019-04-19T03:59:52.265Z,974.5
2019-04-19T04:00:52.004Z,974.49
2019-04-19T04:01:55.040Z,974.5
2019-04-19T04:02:53.093Z,974.51
2019-04-19T04:03:56.517Z,974.49
2019-04-19T04:04:59.340Z,974.54
2019-04-19T04:05:53.344Z,974.57
2019-04-19T04:06:52.609Z,974.57
2019-04-19T04:07:56.809Z,974.54
2019-04-19T04:08:56.846Z,974.58
2019-04-19T04:09:54.440Z,974.62
2019-04-19T04:10:52.068Z,974.64
2019-04-19T04:12:00.934Z,974.63
2019-04-19T04:13:30.246Z,974.66
2019-04-19T04:15:06.896Z,974.64
2019-04-19T04:16:32.445Z,974.69
2019-04-19T04:17:26.757Z,974.72
2019-04-19T04:18:25.749Z,974.67
2019-04-19T04:19:25.530Z,974.7
2019-04-19T04:20:26.354Z,974.72
2019-04-19T04:21:28.195Z,974.74
2019-04-19T04:22:30.037Z,974.76
2019-04-19T04:23:32.148Z,974.76
2019-04-19T04:24:34.408Z,974.77
2019-04-19T04:25:36.701Z,974.8
2019-04-19T04:26:45.590Z,974.78
2019-04-19T04:28:06.670Z,974.82
2019-04-19T04:29:25.105Z,974.82
2019-04-19T04:30:34.259Z,974.83
2019-04-19T04:31:55.740Z,974.83
2019-04-19T04:33:10.254Z,974.86
2019-04-19T04:34:37.327Z,974.85
2019-04-19T04:36:29.722Z,974.89
2019-04-19T04:38:05.565Z,974.89
2019-04-19T04:38:58.554Z,974.93
2019-04-19T04:39:57.835Z,974.97
2019-04-19T04:40:59.379Z,974.96
2019-04-19T04:42:07.726Z,975
2019-04-19T04:43:37.648Z,974.98
2019-04-19T04:46:14.995Z,974.99
2019-04-19T04:48:24.896Z,975.04
2019-04-19T04:50:50.362Z,975.04
2019-04-19T04:52:23.615Z,975.08
2019-04-19T04:53:15.564Z,975.09
2019-04-19T04:54:16.528Z,975.08
2019-04-19T04:55:15.682Z,975.1
2019-04-19T04:56:15.570Z,975.14
2019-04-19T04:57:17.710Z,975.21
2019-04-19T04:58:23.060Z,975.18
2019-04-19T04:59:19.968Z,975.18
2019-04-19T05:00:15.969Z,975.23
2019-04-19T05:01:28.835Z,975.23
2019-04-19T05:02:57.211Z,975.21
2019-04-19T05:04:40.420Z,975.25
2019-04-19T05:06:38.042Z,975.33
2019-04-19T05:08:53.670Z,975.37
2019-04-19T05:10:46.203Z,975.43
2019-04-19T05:13:21.314Z,975.44
2019-04-19T05:15:26.142Z,975.46
2019-04-19T05:18:04.797Z,975.44
2019-04-19T05:20:12.945Z,975.46
2019-04-19T05:22:11.192Z,975.54
2019-04-19T05:24:04.802Z,975.54
2019-04-19T05:26:44.501Z,975.54
2019-04-19T05:28:53.908Z,975.58
2019-04-19T05:29:54.865Z,975.61
2019-04-19T05:30:58.618Z,975.62
2019-04-19T05:31:55.794Z,975.63
2019-04-19T05:33:03.352Z,975.66
2019-04-19T05:34:41.231Z,975.68
2019-04-19T05:36:38.264Z,975.67
2019-04-19T05:38:42.142Z,975.66
2019-04-19T05:40:53.115Z,975.64
2019-04-19T05:42:30.164Z,975.62
2019-04-19T05:47:36.859Z,975.72
2019-04-19T05:48:55.421Z,975.68
2019-04-19T05:51:19.381Z,975.65
2019-04-19T05:53:13.088Z,975.68
2019-04-19T05:54:06.786Z,975.7
2019-04-19T05:55:02.513Z,975.71
2019-04-19T05:56:02.742Z,975.72
2019-04-19T05:57:22.083Z,975.74
2019-04-19T05:58:57.786Z,975.73
2019-04-19T06:00:14.786Z,975.76
2019-04-19T06:02:12.297Z,975.8
2019-04-19T06:03:40.490Z,975.81
2019-04-19T06:06:00.776Z,975.81
2019-04-19T06:07:59.219Z,975.82
2019-04-19T06:08:47.580Z,975.86
2019-04-19T06:09:47.624Z,975.85
2019-04-19T06:10:53.343Z,975.85
2019-04-19T06:11:48.301Z,975.9
2019-04-19T06:12:49.467Z,975.89
2019-04-19T06:13:52.332Z,975.89
2019-04-19T06:16:20.705Z,975.91
2019-04-19T06:18:09.300Z,975.9
2019-04-19T06:19:50.281Z,975.92
2019-04-19T06:21:52.993Z,975.92
2019-04-19T06:23:48.048Z,975.93
2019-04-19T06:26:26.267Z,975.95
2019-04-19T06:29:22.214Z,975.99
2019-04-19T06:31:49.916Z,976.01
2019-04-19T06:34:15.669Z,976.07
2019-04-19T06:35:43.348Z,976.08
2019-04-19T06:36:33.454Z,976.1
2019-04-19T06:37:35.826Z,976.08
2019-04-19T06:38:33.413Z,976.11
2019-04-19T06:39:33.410Z,976.12
2019-04-19T06:40:36.060Z,976.13
2019-04-19T06:41:40.618Z,976.1
2019-04-19T06:42:41.029Z,976.15
2019-04-19T06:43:51.606Z,976.13
2019-04-19T06:45:34.243Z,976.16
2019-04-19T06:47:10.995Z,976.15
2019-04-19T06:48:12.697Z,976.2
2019-04-19T06:49:13.175Z,976.14
2019-04-19T06:50:06.783Z,976.17
2019-04-19T06:51:14.328Z,976.2
2019-04-19T06:52:16.410Z,976.17
2019-04-19T06:53:12.255Z,976.17
2019-04-19T06:54:13.621Z,976.16
2019-04-19T06:55:17.876Z,976.18
2019-04-19T06:56:19.824Z,976.21
2019-04-19T06:57:21.493Z,976.24
2019-04-19T06:58:19.323Z,976.2
2019-04-19T06:59:32.218Z,976.24
2019-04-19T07:01:07.779Z,976.24
2019-04-19T07:01:59.603Z,976.25
2019-04-19T07:02:58.441Z,976.24
2019-04-19T07:03:58.017Z,976.26
2019-04-19T07:05:15.070Z,976.26
2019-04-19T07:07:01.801Z,976.26
2019-04-19T07:09:30.847Z,976.25
2019-04-19T07:12:01.683Z,976.31
2019-04-19T07:13:55.799Z,976.27
2019-04-19T07:14:58.641Z,976.32
2019-04-19T07:17:20.020Z,976.31
2019-04-19T07:18:59.544Z,976.32
2019-04-19T07:20:55.680Z,976.31
2019-04-19T07:22:54.948Z,976.32
2019-04-19T07:25:10.724Z,976.38
2019-04-19T07:27:26.887Z,976.38
2019-04-19T07:28:28.849Z,976.39
2019-04-19T07:29:25.469Z,976.44
2019-04-19T07:30:24.634Z,976.47
2019-04-19T07:31:24.379Z,976.47
2019-04-19T07:32:32.906Z,976.47
2019-04-19T07:33:34.912Z,976.49
2019-04-19T07:35:08.650Z,976.52
2019-04-19T07:37:18.292Z,976.57
2019-04-19T07:39:45.363Z,976.53
2019-04-19T07:42:22.015Z,976.56
2019-04-19T07:44:02.271Z,976.52
2019-04-19T07:45:05.661Z,976.53
2019-04-19T07:46:30.837Z,976.57
2019-04-19T07:47:58.351Z,976.59
2019-04-19T07:48:49.498Z,976.63
2019-04-19T07:49:59.114Z,976.59
2019-04-19T07:51:05.707Z,976.6
2019-04-19T07:52:12.282Z,976.59
2019-04-19T07:57:01.360Z,976.61
2019-04-19T08:00:18.273Z,976.62
2019-04-19T08:05:21.542Z,976.61
2019-04-19T08:10:08.625Z,976.66
2019-04-19T08:16:52.917Z,976.71
2019-04-19T08:28:26.308Z,976.72
2019-04-19T08:29:43.651Z,976.69
2019-04-19T08:30:42.612Z,976.75
2019-04-19T08:31:34.309Z,976.69
2019-04-19T08:32:34.407Z,976.73
2019-04-19T08:33:34.290Z,976.75
2019-04-19T08:34:34.529Z,976.75
2019-04-19T08:35:39.652Z,976.79
2019-04-19T08:36:42.485Z,976.78
2019-04-19T08:37:39.901Z,976.76
2019-04-19T08:38:35.610Z,976.76
2019-04-19T08:40:32.032Z,976.77
2019-04-19T08:42:34.090Z,976.8
2019-04-19T08:44:30.148Z,976.75
2019-04-19T08:45:24.221Z,976.76
2019-04-19T08:46:20.087Z,976.75
2019-04-19T08:47:27.500Z,976.74
2019-04-19T08:48:33.282Z,976.74
2019-04-19T08:49:30.000Z,976.71
2019-04-19T08:50:22.386Z,976.74
2019-04-19T08:51:27.729Z,976.75
2019-04-19T08:52:27.073Z,976.75
2019-04-19T08:53:35.654Z,976.74
2019-04-19T08:55:45.977Z,976.76
2019-04-19T08:57:06.373Z,976.78
2019-04-19T08:58:06.699Z,976.69
2019-04-19T09:00:40.715Z,976.73
2019-04-19T09:02:45.008Z,976.77
2019-04-19T09:04:43.729Z,976.79
2019-04-19T09:07:53.395Z,976.77
2019-04-19T09:10:21.682Z,976.78
2019-04-19T09:12:20.719Z,976.73
2019-04-19T09:14:39.350Z,976.75
2019-04-19T09:16:29.782Z,976.72
2019-04-19T09:19:24.268Z,976.73
2019-04-19T09:21:34.115Z,976.73
2019-04-19T09:23:12.624Z,976.71
2019-04-19T09:24:20.303Z,976.71
2019-04-19T09:25:48.655Z,976.67
2019-04-19T09:27:54.601Z,976.66
2019-04-19T09:30:46.682Z,976.67
2019-04-19T09:32:11.731Z,976.69
2019-04-19T09:33:09.527Z,976.65
2019-04-19T09:34:10.347Z,976.68
2019-04-19T09:35:08.201Z,976.64
2019-04-19T09:36:10.151Z,976.65
2019-04-19T09:37:12.791Z,976.62
2019-04-19T09:38:55.340Z,976.65
2019-04-19T09:40:12.088Z,976.62
2019-04-19T09:41:19.077Z,976.65
2019-04-19T09:42:28.715Z,976.65
2019-04-19T09:44:03.372Z,976.63
2019-04-19T09:45:00.628Z,976.66
2019-04-19T09:45:57.661Z,976.66
2019-04-19T09:46:57.325Z,976.62
2019-04-19T09:47:57.309Z,976.59
2019-04-19T09:49:11.687Z,976.63
2019-04-19T09:50:54.804Z,976.63
2019-04-19T09:52:53.805Z,976.63
2019-04-19T09:55:44.040Z,976.55
2019-04-19T09:57:49.476Z,976.58
2019-04-19T09:59:21.139Z,976.61
2019-04-19T10:00:18.778Z,976.56
2019-04-19T10:01:12.667Z,976.55
2019-04-19T10:02:20.749Z,976.55
2019-04-19T10:03:25.133Z,976.54
2019-04-19T10:04:16.795Z,976.51
2019-04-19T10:05:16.840Z,976.55
2019-04-19T10:06:17.107Z,976.55
2019-04-19T10:07:16.706Z,976.47
2019-04-19T10:08:17.658Z,976.52
2019-04-19T10:09:20.647Z,976.5
2019-04-19T10:10:16.526Z,976.51
2019-04-19T10:11:16.926Z,976.48
2019-04-19T10:12:17.354Z,976.5
2019-04-19T10:13:16.508Z,976.52
2019-04-19T10:14:17.208Z,976.51
2019-04-19T10:15:16.522Z,976.47
2019-04-19T10:16:16.670Z,976.48
2019-04-19T10:17:16.484Z,976.51
2019-04-19T10:18:16.565Z,976.48
2019-04-19T10:19:16.809Z,976.49
2019-04-19T10:20:16.467Z,976.5
2019-04-19T10:21:20.116Z,976.5
2019-04-19T10:22:16.704Z,976.52
2019-04-19T10:23:17.534Z,976.54
2019-04-19T10:24:19.603Z,976.52
2019-04-19T10:25:16.858Z,976.49
2019-04-19T10:26:16.434Z,976.54
2019-04-19T10:27:17.119Z,976.5
2019-04-19T10:28:16.419Z,976.46
2019-04-19T10:29:23.282Z,976.44
2019-04-19T10:30:17.943Z,976.48
2019-04-19T10:31:17.514Z,976.48
2019-04-19T10:32:16.793Z,976.46
2019-04-19T10:33:27.021Z,976.44
2019-04-19T10:34:16.541Z,976.42
2019-04-19T10:35:17.478Z,976.41
2019-04-19T10:36:16.374Z,976.37
2019-04-19T10:37:17.561Z,976.43
2019-04-19T10:38:16.362Z,976.41
2019-04-19T10:39:16.820Z,976.43
2019-04-19T10:40:17.527Z,976.42
2019-04-19T10:41:17.679Z,976.41
2019-04-19T10:42:18.950Z,976.44
2019-04-19T10:43:16.885Z,976.45
2019-04-19T10:44:18.916Z,976.43
2019-04-19T10:45:16.408Z,976.43
2019-04-19T10:46:16.313Z,976.48
2019-04-19T10:47:16.672Z,976.4
2019-04-19T10:48:16.304Z,976.41
2019-04-19T10:49:21.903Z,976.43
2019-04-19T10:50:39.277Z,976.37
2019-04-19T10:51:30.024Z,976.42
2019-04-19T10:52:31.087Z,976.42
2019-04-19T10:53:30.358Z,976.39
2019-04-19T10:54:30.691Z,976.38
2019-04-19T10:55:29.847Z,976.34
2019-04-19T10:56:30.061Z,976.33
2019-04-19T10:57:30.011Z,976.36
2019-04-19T10:58:29.836Z,976.35
2019-04-19T10:59:30.184Z,976.34
2019-04-19T11:00:29.818Z,976.35
2019-04-19T11:01:29.813Z,976.3
2019-04-19T11:02:29.946Z,976.39
2019-04-19T11:03:30.765Z,976.31
2019-04-19T11:04:30.987Z,976.29
2019-04-19T11:05:29.788Z,976.28
2019-04-19T11:06:29.782Z,976.29
2019-04-19T11:07:29.877Z,976.25
2019-04-19T11:08:30.754Z,976.28
2019-04-19T11:09:30.894Z,976.27
2019-04-19T11:10:29.759Z,976.27
2019-04-19T11:11:29.808Z,976.28
2019-04-19T11:12:29.755Z,976.29
2019-04-19T11:13:31.100Z,976.28
2019-04-19T11:14:30.223Z,976.26
2019-04-19T11:15:30.753Z,976.23
2019-04-19T11:16:29.726Z,976.27
2019-04-19T11:17:29.777Z,976.28
2019-04-19T11:18:29.914Z,976.22
2019-04-19T11:19:45.680Z,976.24
2019-04-19T11:20:52.331Z,976.21
2019-04-19T11:21:49.749Z,976.26
2019-04-19T11:22:50.039Z,976.23
2019-04-19T11:23:49.436Z,976.19
2019-04-19T11:24:49.907Z,976.2
2019-04-19T11:25:49.998Z,976.23
2019-04-19T11:26:48.875Z,976.16
2019-04-19T11:27:51.156Z,976.17
2019-04-19T11:28:49.166Z,976.19
2019-04-19T11:29:49.889Z,976.19
2019-04-19T11:30:48.951Z,976.19
2019-04-19T11:31:49.873Z,976.17
2019-04-19T11:32:48.843Z,976.16
2019-04-19T11:33:48.923Z,976.17
2019-04-19T11:34:49.214Z,976.18
2019-04-19T11:35:49.561Z,976.17
2019-04-19T11:36:49.498Z,976.17
2019-04-19T11:37:49.163Z,976.15
2019-04-19T11:38:49.142Z,976.19
2019-04-19T11:39:48.820Z,976.15
2019-04-19T11:40:49.108Z,976.14
2019-04-19T11:41:49.252Z,976.17
2019-04-19T11:42:48.974Z,976.14
2019-04-19T11:43:49.451Z,976.13
2019-04-19T11:44:49.800Z,976.12
2019-04-19T11:45:48.765Z,976.12
2019-04-19T11:46:49.881Z,976.11
2019-04-19T11:47:49.125Z,976.11
2019-04-19T11:48:49.597Z,976.14
2019-04-19T11:49:49.310Z,976.15
2019-04-19T11:50:49.617Z,976.1
2019-04-19T11:51:49.783Z,976.14
2019-04-19T11:52:50.049Z,976.12
2019-04-19T11:53:48.758Z,976.15
2019-04-19T11:54:48.716Z,976.14
2019-04-19T11:55:48.744Z,976.15
2019-04-19T11:56:54.879Z,976.14
2019-04-19T11:57:48.877Z,976.18
2019-04-19T11:58:48.695Z,976.14
2019-04-19T11:59:52.577Z,976.16
2019-04-19T12:00:50.180Z,976.16
2019-04-19T12:01:48.940Z,976.15
2019-04-19T12:02:49.730Z,976.12
2019-04-19T12:03:50.010Z,976.14
2019-04-19T12:04:48.661Z,976.16
2019-04-19T12:05:48.658Z,976.13
2019-04-19T12:06:48.652Z,976.15
2019-04-19T12:07:48.646Z,976.13
2019-04-19T12:08:49.685Z,976.17
2019-04-19T12:09:48.673Z,976.14
2019-04-19T12:10:48.724Z,976.15
2019-04-19T12:11:48.623Z,976.16
2019-04-19T12:12:48.799Z,976.13
2019-04-19T12:13:49.792Z,976.16
2019-04-19T12:14:48.745Z,976.17
2019-04-19T12:15:49.255Z,976.17
2019-04-19T12:16:48.897Z,976.18
2019-04-19T12:17:48.589Z,976.19
2019-04-19T12:18:48.752Z,976.16
2019-04-19T12:19:52.652Z,976.18
2019-04-19T12:20:49.534Z,976.15
2019-04-19T12:21:49.376Z,976.14
2019-04-19T12:22:49.989Z,976.16
2019-04-19T12:23:48.668Z,976.13
2019-04-19T12:24:51.777Z,976.12
2019-04-19T12:25:48.547Z,976.16
2019-04-19T12:26:49.450Z,976.17
2019-04-19T12:27:49.460Z,976.15
2019-04-19T12:28:48.530Z,976.15
2019-04-19T12:29:51.482Z,976.13
2019-04-19T12:30:52.072Z,976.14
2019-04-19T12:31:49.635Z,976.09
2019-04-19T12:32:48.511Z,976.11
2019-04-19T12:33:49.124Z,976.1
2019-04-19T12:34:48.769Z,976.1
2019-04-19T12:35:49.423Z,976.14
2019-04-19T12:36:48.961Z,976.11
2019-04-19T12:37:49.053Z,976.11
2019-04-19T12:38:48.476Z,976.12
2019-04-19T12:39:48.621Z,976.12
2019-04-19T12:40:49.800Z,976.09
2019-04-19T12:41:48.467Z,976.07
2019-04-19T12:42:49.578Z,976.08
2019-04-19T12:43:49.830Z,976.05
2019-04-19T12:44:48.444Z,976.07
2019-04-19T12:45:51.821Z,976.01
2019-04-19T12:46:48.727Z,976.05
2019-04-19T12:47:48.960Z,976.03
2019-04-19T12:48:48.440Z,976.02
2019-04-19T12:49:55.792Z,976.04
2019-04-19T12:50:49.569Z,976.06
2019-04-19T12:51:48.407Z,976.01
2019-04-19T12:52:48.603Z,976.04
2019-04-19T12:53:49.473Z,976.04
2019-04-19T12:54:48.540Z,976.03
2019-04-19T12:55:48.566Z,976.04
2019-04-19T12:56:49.705Z,975.99
2019-04-19T12:57:48.378Z,975.97
2019-04-19T12:58:48.370Z,975.94
2019-04-19T12:59:49.410Z,975.9
2019-04-19T13:00:48.358Z,975.94
2019-04-19T13:01:48.599Z,975.94
2019-04-19T13:02:49.703Z,975.91
2019-04-19T13:03:48.415Z,975.91
2019-04-19T13:04:48.571Z,975.91
2019-04-19T13:05:49.034Z,975.91
2019-04-19T13:06:48.325Z,975.84
2019-04-19T13:07:49.284Z,975.82
2019-04-19T13:08:48.314Z,975.85
2019-04-19T13:09:48.871Z,975.85
2019-04-19T13:10:49.041Z,975.85
2019-04-19T13:11:48.734Z,975.87
2019-04-19T13:12:48.402Z,975.84
2019-04-19T13:13:48.292Z,975.8
2019-04-19T13:14:49.332Z,975.82
2019-04-19T13:15:48.288Z,975.81
2019-04-19T13:16:48.501Z,975.8
2019-04-19T13:17:48.457Z,975.79
2019-04-19T13:18:48.462Z,975.81
2019-04-19T13:20:00.449Z,975.79
2019-04-19T13:20:48.563Z,975.79
2019-04-19T13:21:48.245Z,975.77
2019-04-19T13:22:48.488Z,975.76
2019-04-19T13:23:48.448Z,975.77
2019-04-19T13:24:48.231Z,975.77
2019-04-19T13:25:49.062Z,975.75
2019-04-19T13:26:49.332Z,975.73
2019-04-19T13:27:54.146Z,975.74
2019-04-19T13:28:49.454Z,975.73
2019-04-19T13:29:48.205Z,975.72
2019-04-19T13:30:53.504Z,975.72
2019-04-19T13:31:48.987Z,975.75
2019-04-19T13:32:49.386Z,975.68
2019-04-19T13:33:48.895Z,975.69
2019-04-19T13:34:49.369Z,975.72
2019-04-19T13:35:48.834Z,975.68
2019-04-19T13:36:49.048Z,975.68
2019-04-19T13:37:49.198Z,975.7
2019-04-19T13:38:48.754Z,975.67
2019-04-19T13:39:48.203Z,975.67
2019-04-19T13:40:48.955Z,975.64
2019-04-19T13:41:48.750Z,975.61
2019-04-19T13:42:48.782Z,975.62
2019-04-19T13:43:48.919Z,975.58
2019-04-19T13:44:48.126Z,975.58
2019-04-19T13:45:48.482Z,975.6
2019-04-19T13:46:48.679Z,975.58
2019-04-19T13:47:48.876Z,975.54
2019-04-19T13:48:48.457Z,975.55
2019-04-19T13:49:49.352Z,975.57
2019-04-19T13:50:49.646Z,975.54
2019-04-19T13:51:48.256Z,975.54
2019-04-19T13:52:48.653Z,975.51
2019-04-19T13:53:48.817Z,975.51
2019-04-19T13:54:48.510Z,975.5
2019-04-19T13:55:48.646Z,975.49
2019-04-19T13:56:49.129Z,975.51
2019-04-19T13:57:49.254Z,975.45
2019-04-19T13:58:48.054Z,975.48
2019-04-19T13:59:54.430Z,975.5
2019-04-19T14:00:49.264Z,975.5
2019-04-19T14:01:48.300Z,975.46
2019-04-19T14:02:49.344Z,975.48
2019-04-19T14:03:48.376Z,975.46
2019-04-19T14:04:49.095Z,975.47
2019-04-19T14:05:48.017Z,975.45
2019-04-19T14:06:48.471Z,975.44
2019-04-19T14:07:48.636Z,975.46
2019-04-19T14:08:49.031Z,975.47
2019-04-19T14:09:49.313Z,975.46
2019-04-19T14:10:48.796Z,975.48
2019-04-19T14:11:49.033Z,975.46
2019-04-19T14:12:49.118Z,975.48
2019-04-19T14:13:51.167Z,975.48
2019-04-19T14:14:48.862Z,975.44
2019-04-19T14:15:48.874Z,975.44
2019-04-19T14:16:47.963Z,975.42
2019-04-19T14:17:47.957Z,975.42
2019-04-19T14:18:48.769Z,975.45
2019-04-19T14:19:49.043Z,975.46
2019-04-19T14:20:51.026Z,975.44
2019-04-19T14:21:48.782Z,975.47
2019-04-19T14:22:47.930Z,975.46
2019-04-19T14:23:49.053Z,975.44
2019-04-19T14:24:50.079Z,975.42
2019-04-19T14:25:47.915Z,975.4
2019-04-19T14:26:51.832Z,975.39
2019-04-19T14:27:49.018Z,975.36
2019-04-19T14:28:47.900Z,975.38
2019-04-19T14:29:48.127Z,975.39
2019-04-19T14:30:49.110Z,975.36
2019-04-19T14:31:48.555Z,975.34
2019-04-19T14:32:47.882Z,975.36
2019-04-19T14:33:48.746Z,975.38
2019-04-19T14:34:48.164Z,975.37
2019-04-19T14:35:48.044Z,975.36
2019-04-19T14:36:47.866Z,975.3
2019-04-19T14:37:48.160Z,975.29
2019-04-19T14:38:48.267Z,975.31
2019-04-19T14:39:48.748Z,975.28
2019-04-19T14:40:49.232Z,975.26
2019-04-19T14:41:47.848Z,975.22
2019-04-19T14:42:48.718Z,975.27
2019-04-19T14:43:48.172Z,975.28
2019-04-19T14:44:47.840Z,975.28
2019-04-19T14:45:48.720Z,975.24
2019-04-19T14:46:47.838Z,975.33
2019-04-19T14:47:48.815Z,975.29
2019-04-19T14:48:49.025Z,975.28
2019-04-19T14:49:49.011Z,975.3
2019-04-19T14:50:55.127Z,975.26
2019-04-19T14:51:48.442Z,975.26
2019-04-19T14:52:48.877Z,975.27
2019-04-19T14:53:47.823Z,975.24
2019-04-19T14:54:48.147Z,975.3
2019-04-19T14:55:47.890Z,975.28
2019-04-19T14:56:47.857Z,975.25
2019-04-19T14:57:47.819Z,975.27
2019-04-19T14:58:47.867Z,975.26
2019-04-19T14:59:49.032Z,975.28
2019-04-19T15:00:49.124Z,975.26
2019-04-19T15:01:49.331Z,975.25
2019-04-19T15:02:48.798Z,975.29
2019-04-19T15:03:48.536Z,975.25
2019-04-19T15:04:48.883Z,975.26
2019-04-19T15:05:47.815Z,975.19
2019-04-19T15:06:47.814Z,975.22
2019-04-19T15:07:48.410Z,975.27
2019-04-19T15:08:47.813Z,975.24
2019-04-19T15:09:47.885Z,975.23
2019-04-19T15:10:47.834Z,975.21
2019-04-19T15:11:47.829Z,975.23
2019-04-19T15:12:48.920Z,975.24
2019-04-19T15:13:48.626Z,975.24
2019-04-19T15:14:49.087Z,975.25
2019-04-19T15:15:48.333Z,975.22
2019-04-19T15:16:47.814Z,975.24
2019-04-19T15:17:47.814Z,975.26
2019-04-19T15:18:47.818Z,975.28
2019-04-19T15:19:48.268Z,975.21
2019-04-19T15:20:56.841Z,975.23
2019-04-19T15:21:48.160Z,975.18
2019-04-19T15:22:48.520Z,975.22
2019-04-19T15:23:47.814Z,975.21
2019-04-19T15:24:48.733Z,975.19
2019-04-19T15:25:48.541Z,975.2
2019-04-19T15:26:48.911Z,975.17
2019-04-19T15:27:48.632Z,975.16
2019-04-19T15:28:48.819Z,975.16
2019-04-19T15:29:49.109Z,975.15
2019-04-19T15:30:48.109Z,975.13
2019-04-19T15:31:48.574Z,975.11
2019-04-19T15:32:48.539Z,975.11
2019-04-19T15:33:48.487Z,975.12
2019-04-19T15:34:47.865Z,975.1
2019-04-19T15:35:48.279Z,975.11
2019-04-19T15:36:47.811Z,975.08
2019-04-19T15:37:47.811Z,975.1
2019-04-19T15:38:48.093Z,975.08
2019-04-19T15:39:47.809Z,975.1
2019-04-19T15:40:48.066Z,975.09
2019-04-19T15:41:48.674Z,975.09
2019-04-19T15:42:47.808Z,975.11
2019-04-19T15:43:48.434Z,975.13
2019-04-19T15:44:48.923Z,975.14
2019-04-19T15:45:47.806Z,975.12
2019-04-19T15:46:47.808Z,975.14
2019-04-19T15:47:48.620Z,975.16
2019-04-19T15:48:51.780Z,975.2
2019-04-19T15:49:48.180Z,975.14
2019-04-19T15:50:47.802Z,975.16
2019-04-19T15:51:48.263Z,975.18
2019-04-19T15:52:48.101Z,975.14
2019-04-19T15:53:49.977Z,975.14
2019-04-19T15:54:47.984Z,975.17
2019-04-19T15:55:48.554Z,975.23
2019-04-19T15:56:47.938Z,975.19
2019-04-19T15:57:48.568Z,975.1
2019-04-19T15:58:48.869Z,975.14
2019-04-19T15:59:47.793Z,975.11